OIYY  Shahid Sadooghi  Airport

Yazd, Iran

Add Bookmark
ICAO OIYY
IATA AZD
Type Airport
Status Operational
Latitude
31° 54' 17" N
31.904900
Longitude
54° 16' 35" E
54.276501
Local (GMT +3.5 ) UTC
Dec 8, 2016 03:26 pm Dec 8, 2016 11:56
Sunrise-Sunset Local UTC
Begin Civil Twilight 06:13 am 02:43
Sunrise 06:39 am 03:09
Sunset 04:50 pm 13:20
End Civil Twilight 05:16 pm 13:46
VFR
VFR
MVFR
MVFR
IFR
IFR
LIFR
LIFR
Unknown
No Data

Current Weather

METAR Observed MVFR
OIYY 081130Z 16002KT 8000 FEW040 21/M04 Q1017 Thu, Dec 8, 2016 @ 11:30 UTC
(26 Minutes ago)
Marginal Visual Flight Rules
Wind Visibility Clouds Conditions
160° at 2 knots (4 kph) 7,998 m
  • Few at 4,000 ft AGL
  • No significant weather
Temperatures Readings Precipitation
Current Temp
21°C
70°F
Dewpoint
-4°C
25°F
Humidity 18%
Altimeter 30.03" Hg
Sea Level Pressure 1,017 mb
Field Elevation
1,236 m
4,055 ft
None Recorded
-
-

CheckWX.com is intended as a tool to help pilots better visualize weather data. It is not intended as a substitute for an official weather briefing obtained from a Flight Service Station. CheckWX.com does not meet the FAA requirements for an official pre-flight weather briefing. Therefore, it's important that pilots still call and obtain an official FSS pre-flight weather briefing.

© 2007-2016 CheckWX.com
11:56:28 UTC